Wednesday, April 25, 2018, 12:25 PM GMT
Back to Local

CXSH, Shawinigan CS , Que.

Location: , , Canada Lat: 46.583
Local Time: 12:25 PM GMT (12:25 GMT) Lon: -72.583
Time Zone: GMT Elev: 360 ft

Show me the last for .
Show Coded

Time T Td Feel RH Dir Speed Gust Alt SLP Vis Weather Sky Remarks
2018-04-25 12:00 45 38 - 74 50° 1 - - 30.03 0 None
2018-04-25 11:00 42 36 41 78 150° 3 - - 30.02 0 None
2018-04-25 10:00 43 36 - 76 340° 2 - - 30.01 0 None
2018-04-25 09:00 45 37 - 72 300° 2 - - 30.01 0 None
2018-04-25 08:00 43 36 - 76 50° 1 - - 30.02 0 None
2018-04-25 07:00 45 36 - 71 320° 2 - - 30.02 0 None
2018-04-25 06:00 44 35 - 70 30° 1 - - 30.03 0 None
2018-04-25 05:00 46 36 - 66 340° 2 - - 30.03 0 None
2018-04-25 04:00 48 36 - 62 330° 1 - - 30.04 0 None
2018-04-25 03:00 49 36 - 61 300° 2 - - 30.05 0 None
2018-04-25 02:00 50 37 - 60 320° 2 - - 30.06 0 None
2018-04-25 01:00 53 38 - 55 340° 1 - - 30.07 0 None
2018-04-25 00:00 60 38 - 45 230° 3 - - 30.06 0 None
2018-04-24 23:00 60 37 - 42 180° 5 - - 30.06 0 None
2018-04-24 22:00 63 37 - 37 220° 5 - - 30.08 0 None
2018-04-24 21:00 64 37 - 35 220° 8 - - 30.08 0 None
2018-04-24 20:00 64 38 - 37 220° 9 - - 30.10 0 None
2018-04-24 19:00 63 36 - 36 200° 12 17 - 30.11 0 None
2018-04-24 18:00 58 34 - 40 180° 9 - - 30.14 0 None
2018-04-24 17:00 60 33 - 36 220° 9 - - 30.16 0 None
2018-04-24 16:00 56 33 - 40 200° 10 - - 30.19 0 None
2018-04-24 15:00 51 29 - 41 170° 9 - - 30.20 0 None
2018-04-24 14:00 49 26 46 40 180° 6 - - 30.21 0 None
2018-04-24 13:00 43 28 - 54 170° 2 - - 30.22 0 None

Support USWX by starting your Amazon purchase here.